KF4LQQ Sarasota FL US current weather conditions

sailwx.info

Wind from 315 at 8 knots gusting 13

Air temperature 30.6° C

Last reported at 2020-Jul-10 18:08 UTC.
Time now 2020-Jul-10 19:06 UTC

Location: N 27°18' W 082°31'.
View on Google Maps.

See reports from other nearby stations

  
Tides and Currents Weather Stations Pressure Air Temp Water Temp Dewpoint Dewpoint Depression Visibility Wind Speed Wind Dir Waves Ship Positions
date/time (UTC)wind fromknots sea level pressurealtimeterstation pressurevisibilityair tempwater tempwave heightnotes
2020-Jul-10 18:08 315 8 gusting 13 30.6
2020-Jul-10 17:48 329 12 gusting 18 31.1
2020-Jul-10 16:48 315 12 gusting 18 31.1
2020-Jul-10 14:49 304 10 gusting 15 30.6
2020-Jul-10 14:28 295 8 gusting 14 30.6
2020-Jul-10 13:38 295 11 gusting 14 30.0
2020-Jul-10 13:28 305 10 gusting 16 29.4
2020-Jul-10 13:08 308 9 gusting 15 29.4
2020-Jul-10 12:58 328 9 gusting 12 29.4
2020-Jul-10 12:38 328 8 gusting 13 28.9
2020-Jul-10 10:08 284 7 gusting 13 27.8
2020-Jul-10 09:58 295 6 gusting 9 27.8
2020-Jul-10 09:38 305 6 gusting 11 27.8
2020-Jul-10 09:18 316 7 gusting 11 27.2
2020-Jul-10 08:58 262 1 gusting 2 26.7
2020-Jul-10 08:48 326 5 gusting 7 26.7
2020-Jul-10 07:38 273 7 gusting 11 28.3
2020-Jul-10 07:18 280 8 gusting 11 28.3
2020-Jul-10 06:48 301 6 gusting 10 28.3
2020-Jul-10 05:18 308 6 gusting 7 28.3
2020-Jul-10 04:58 311 6 gusting 7 28.3
2020-Jul-10 04:38 308 6 gusting 9 28.3
2020-Jul-10 04:18 301 6 gusting 8 28.3
2020-Jul-10 04:08 298 6 gusting 10 28.3
2020-Jul-10 03:48 311 6 gusting 8 28.3
2020-Jul-10 03:38 305 4 gusting 5 28.3
2020-Jul-10 03:18 335 6 gusting 9 28.3
2020-Jul-10 03:08 329 6 gusting 8 28.9
2020-Jul-10 02:48 277 6 gusting 6 28.9
2020-Jul-10 02:38 316 5 gusting 7 28.9
2020-Jul-10 02:18 340 6 gusting 8 28.9
2020-Jul-10 02:08 315 5 gusting 7 28.9
2020-Jul-10 01:58 307 6 gusting 8 28.9
2020-Jul-10 01:48 318 6 gusting 8 28.9
2020-Jul-10 01:38 308 7 gusting 9 28.9
2020-Jul-10 01:29 301 6 gusting 7 28.9
2020-Jul-10 01:08 311 6 gusting 11 28.9
2020-Jul-10 00:58 314 7 gusting 11 29.4
2020-Jul-10 00:48 287 6 gusting 9 29.4
2020-Jul-10 00:38 263 6 gusting 9 29.4
2020-Jul-10 00:28 309 6 gusting 9 29.4
2020-Jul-10 00:18 311 7 gusting 12 29.4
2020-Jul-09 23:58 314 10 gusting 13 30.0
2020-Jul-09 23:48 312 6 gusting 11 30.0
2020-Jul-09 23:38 294 7 gusting 11 30.6
2020-Jul-09 23:28 319 8 gusting 13 31.1
2020-Jul-09 23:08 298 8 gusting 12 31.7
2020-Jul-09 22:58 307 7 gusting 13 31.7
2020-Jul-09 22:38 300 8 gusting 14 32.8
2020-Jul-09 22:18 271 10 gusting 13 32.8
2020-Jul-09 22:08 315 7 gusting 13 33.9
2020-Jul-09 22:05 239 8 gusting 13 33.3
2020-Jul-09 21:58 293 8 gusting 14 33.3
2020-Jul-09 21:48 295 10 gusting 14 33.9
2020-Jul-09 21:38 239 8 gusting 13 33.3
2020-Jul-09 21:28 315 11 gusting 17 33.3
2020-Jul-09 21:18 307 11 gusting 17 33.9
2020-Jul-09 21:08 321 11 gusting 16 33.3
2020-Jul-09 21:00 309 12 gusting 16 33.3
2020-Jul-09 20:58 330 11 gusting 15 33.3
2020-Jul-09 20:48 316 10 gusting 15 33.9
2020-Jul-09 20:38 330 10 gusting 14 33.9
2020-Jul-09 20:28 301 10 gusting 19 33.9
2020-Jul-09 20:18 330 11 gusting 15 33.3
2020-Jul-09 20:08 293 12 gusting 19 33.9
2020-Jul-09 19:58 305 11 gusting 16 33.3
2020-Jul-09 19:51 315 11 gusting 18 33.3
2020-Jul-09 19:48 315 11 gusting 18 33.3
2020-Jul-09 19:38 307 10 gusting 16 33.9
2020-Jul-09 19:28 316 10 gusting 13 33.9
2020-Jul-09 19:18 342 9 gusting 14 33.3
2020-Jul-09 19:08 311 13 gusting 22 32.8
2020-Jul-09 18:58 329 12 gusting 17 32.8
2020-Jul-09 18:48 32.8
2020-Jul-09 18:38 339 12 gusting 18 32.2
2020-Jul-09 18:28 309 10 gusting 16 31.7
2020-Jul-09 18:18 308 12 gusting 17 31.7
2020-Jul-09 18:08 321 11 gusting 17 31.7
2020-Jul-09 17:58 301 13 gusting 21 31.7
2020-Jul-09 17:48 288 11 gusting 17 32.2
2020-Jul-09 17:38 312 11 gusting 20 31.7
2020-Jul-09 17:28 297 13 gusting 21 31.7
2020-Jul-09 17:18 298 12 gusting 16 31.7
2020-Jul-09 17:08 304 10 gusting 13 31.7
2020-Jul-09 16:58 326 11 gusting 18 31.1
2020-Jul-09 16:48 266 10 gusting 16 31.1
2020-Jul-09 16:38 287 9 gusting 14 31.7
2020-Jul-09 16:28 332 9 gusting 16 31.1
2020-Jul-09 16:18 316 10 gusting 16 31.1
2020-Jul-09 16:08 323 8 gusting 15 31.1
2020-Jul-09 15:58 305 11 gusting 17 31.1
2020-Jul-09 15:48 301 9 gusting 13 31.1
2020-Jul-09 15:38 300 9 gusting 14 31.1
2020-Jul-09 15:28 298 8 gusting 13 30.6
2020-Jul-09 15:18 290 8 gusting 13 30.6
2020-Jul-09 15:09 301 10 gusting 13 30.6
2020-Jul-09 14:58 308 8 gusting 13 31.1
2020-Jul-09 14:49 293 9 gusting 13 31.1
2020-Jul-09 14:38 323 7 gusting 11 31.1
2020-Jul-09 14:29 266 9 gusting 13 30.6
2020-Jul-09 14:19 314 9 gusting 13 31.1
2020-Jul-09 14:08 311 6 gusting 12 30.6
2020-Jul-09 13:49 343 6 gusting 9 30.6
2020-Jul-09 13:38 013 9 gusting 11 30.6
2020-Jul-09 13:28 346 8 gusting 12 30.6
2020-Jul-09 13:18 011 8 gusting 11 30.0
2020-Jul-09 13:08 312 5 gusting 7 29.4
2020-Jul-09 12:58 004 7 gusting 13 29.4
2020-Jul-09 12:49 311 7 gusting 12 29.4
2020-Jul-09 12:28 345 6 gusting 7 28.9
2020-Jul-09 12:18 342 6 gusting 8 28.9
2020-Jul-09 12:08 353 5 gusting 7 28.3
2020-Jul-09 11:58 001 6 gusting 7 28.3
2020-Jul-09 11:49 013 5 gusting 6 27.8
2020-Jul-09 11:38 302 5 gusting 6 27.8
2020-Jul-09 11:28 007 4 gusting 5 27.2
2020-Jul-09 11:18 316 1 gusting 2 26.7
2020-Jul-09 11:08 26.7
2020-Jul-09 10:58 353 3 gusting 5 27.2
2020-Jul-09 10:48 001 4 gusting 4 27.2
2020-Jul-09 10:38 322 2 gusting 5 27.2
2020-Jul-09 10:28 273 27.2
2020-Jul-09 10:18 359 2 gusting 5 27.2
2020-Jul-09 10:08 304 3 gusting 4 27.2
2020-Jul-09 09:58 301 2 gusting 4 27.2
2020-Jul-09 09:38 350 4 gusting 5 27.2
2020-Jul-09 09:28 359 1 gusting 2 27.2
2020-Jul-09 09:18 314 6 gusting 8 27.2
2020-Jul-09 08:58 276 2 gusting 2 27.2
2020-Jul-09 08:48 305 4 gusting 6 27.2
2020-Jul-09 08:38 304 3 gusting 5 27.2
2020-Jul-09 08:18 008 2 gusting 2 27.8
2020-Jul-09 08:08 323 5 gusting 6 27.8
2020-Jul-09 07:58 314 4 gusting 6 27.8
2020-Jul-09 07:48 321 7 gusting 9 27.8
2020-Jul-09 07:28 333 6 gusting 10 27.8
2020-Jul-09 07:18 329 6 gusting 7 27.8
2020-Jul-09 07:08 309 4 gusting 6 27.8
2020-Jul-09 06:58 322 4 gusting 6 27.8
2020-Jul-09 06:48 314 6 gusting 8 27.8
2020-Jul-09 06:38 316 6 gusting 9 27.8
2020-Jul-09 06:18 294 6 gusting 10 27.8
2020-Jul-09 06:08 311 6 gusting 8 27.8
2020-Jul-09 05:48 304 5 gusting 6 27.8
2020-Jul-09 05:38 318 6 gusting 6 28.3
2020-Jul-09 05:28 294 5 gusting 6 28.3
2020-Jul-09 05:18 288 6 gusting 9 28.3
2020-Jul-09 04:58 316 7 gusting 11 28.3
2020-Jul-09 04:49 271 7 gusting 9 28.3
2020-Jul-09 04:41 285 6 gusting 9 28.3
2020-Jul-09 04:38 285 6 gusting 9 28.3
2020-Jul-09 04:28 326 6 gusting 9 28.3
2020-Jul-09 04:18 270 5 gusting 7 28.3
2020-Jul-09 04:08 294 6 gusting 8 28.3
2020-Jul-09 04:03 255 7 gusting 11 28.3
2020-Jul-09 03:58 255 7 gusting 11 28.3
2020-Jul-09 03:48 308 7 gusting 9 28.3
2020-Jul-09 03:39 307 6 gusting 8 28.3
2020-Jul-09 03:28 291 5 gusting 6 28.3
2020-Jul-09 03:24 300 4 gusting 7 28.3
2020-Jul-09 03:18 276 5 gusting 8 28.3
2020-Jul-09 03:10 280 5 gusting 8 28.3
2020-Jul-09 02:58 293 7 gusting 13 28.3
2020-Jul-09 02:48 270 6 gusting 10 28.3
2020-Jul-09 02:28 300 4 gusting 7 28.3
2020-Jul-09 02:18 300 5 gusting 6 28.3
2020-Jul-09 02:08 315 6 gusting 8 28.3
2020-Jul-09 01:59 319 4 gusting 6 28.3
2020-Jul-09 01:48 316 6 gusting 8 28.3
2020-Jul-09 01:39 325 6 gusting 10 28.3
2020-Jul-09 01:28 339 5 gusting 6 28.3
2020-Jul-09 01:18 298 6 gusting 11 28.3
2020-Jul-09 01:08 311 6 gusting 10 28.3
2020-Jul-09 00:59 307 7 gusting 11 28.9
2020-Jul-09 00:51 307 6 gusting 10 28.9
2020-Jul-09 00:49 312 6 gusting 10 28.9
2020-Jul-09 00:38 307 6 gusting 10 28.9
2020-Jul-09 00:28 298 8 gusting 11 28.9
2020-Jul-09 00:18 307 6 gusting 9 28.9
2020-Jul-09 00:09 267 7 gusting 11 28.9
2020-Jul-08 23:58 297 7 gusting 10 28.9
2020-Jul-08 23:48 330 5 gusting 6 29.4
2020-Jul-08 23:38 319 7 gusting 11 29.4
2020-Jul-08 23:28 319 8 gusting 11 30.0
2020-Jul-08 23:18 302 8 gusting 12 30.0
2020-Jul-08 23:08 329 7 gusting 12 30.0
2020-Jul-08 23:01 309 9 gusting 13 30.6
2020-Jul-08 22:58 309 9 gusting 13 30.6
2020-Jul-08 22:48 259 8 gusting 12 30.6
2020-Jul-08 22:38 285 10 gusting 13 30.6
2020-Jul-08 22:28 270 10 gusting 13 31.1
2020-Jul-08 22:18 304 8 gusting 12 31.1
2020-Jul-08 22:08 283 8 gusting 13 31.7
2020-Jul-08 21:58 255 9 gusting 12 32.2
2020-Jul-08 21:48 271 6 gusting 9 33.3
2020-Jul-08 21:38 321 9 gusting 14 33.3
2020-Jul-08 21:28 293 10 gusting 15 32.8
2020-Jul-08 21:24 311 9 gusting 13 33.3
2020-Jul-08 21:18 297 7 gusting 12 33.3
2020-Jul-08 21:09 311 9 gusting 13 33.3
2020-Jul-08 20:58 301 9 gusting 15 32.8
2020-Jul-08 20:50 270 8 gusting 13 32.8
2020-Jul-08 20:38 318 11 gusting 14 33.3
2020-Jul-08 20:18 278 8 gusting 11 33.3
2020-Jul-08 20:08 291 8 gusting 15 33.3
2020-Jul-08 19:58 297 8 gusting 13 33.3
2020-Jul-08 19:49 307 9 gusting 14 32.8
2020-Jul-08 19:38 350 9 gusting 13 33.3
2020-Jul-08 19:28 307 9 gusting 13 33.3
2020-Jul-08 19:18 285 8 gusting 12 32.8